Time;durP1;ratioP1;P1;durP2;ratioP2;P2;SDS_P1;SDS_P2;PMS_P1;PMS_P2;Temp;Humidity;BMP_temperature;BMP_pressure;BME280_temperature;BME280_humidity;BME280_pressure;Samples;Min_cycle;Max_cycle;Signal;HPM_P1;HPM_P2
2021/03/01 00:01:00;;;;;;;30.63;11.43;;;;;;;;;;5029285;28;20032;-67
2021/03/01 00:03:26;;;;;;;24.15;10.65;;;;;;;;;;5030586;28;20018;-67
2021/03/01 00:05:52;;;;;;;27.17;12.32;;;;;;;;;;5035500;28;20496;-66
2021/03/01 00:08:17;;;;;;;24.20;11.70;;;;;;;;;;5032143;28;20060;-67
2021/03/01 00:10:42;;;;;;;23.95;10.77;;;;;;;;;;5042960;28;20056;-67
2021/03/01 00:13:07;;;;;;;25.70;10.88;;;;;;;;;;5033074;28;20362;-66
2021/03/01 00:15:32;;;;;;;26.75;12.38;;;;;;;;;;5032634;28;20033;-68
2021/03/01 00:17:58;;;;;;;30.17;12.18;;;;;;;;;;5030469;28;20060;-66
2021/03/01 00:20:23;;;;;;;29.63;10.93;;;;;;;;;;5032152;28;20021;-67
2021/03/01 00:22:48;;;;;;;26.75;11.68;;;;;;;;;;5027533;28;20183;-66
2021/03/01 00:25:14;;;;;;;24.02;10.02;;;;;;;;;;5029190;28;20092;-66
2021/03/01 00:27:39;;;;;;;23.70;10.65;;;;;;;;;;5029001;28;20504;-66
2021/03/01 00:30:06;;;;;;;26.20;10.93;;;;;;;;;;5033436;28;20013;-66
2021/03/01 00:32:31;;;;;;;44.40;11.25;;;;;;;;;;5027633;28;20556;-66
2021/03/01 00:34:57;;;;;;;25.70;11.02;;;;;;;;;;5050104;28;20017;-67
2021/03/01 00:37:22;;;;;;;27.08;11.98;;;;;;;;;;5035880;28;20022;-66
2021/03/01 00:39:47;;;;;;;25.20;11.65;;;;;;;;;;5030031;28;20032;-67
2021/03/01 00:42:12;;;;;;;26.17;11.93;;;;;;;;;;5029109;28;20026;-67
2021/03/01 00:44:37;;;;;;;25.50;11.02;;;;;;;;;;5032801;28;20021;-67
2021/03/01 00:47:03;;;;;;;29.95;10.85;;;;;;;;;;5032753;28;20022;-66
2021/03/01 00:49:28;;;;;;;22.23;11.23;;;;;;;;;;5034029;28;20553;-68
2021/03/01 00:51:53;;;;;;;26.30;10.77;;;;;;;;;;5032453;28;20436;-67
2021/03/01 00:54:19;;;;;;;24.00;11.18;;;;;;;;;;5032436;28;20428;-67
2021/03/01 00:56:44;;;;;;;22.95;10.70;;;;;;;;;;5036976;28;20427;-67
2021/03/01 00:59:09;;;;;;;28.98;10.35;;;;;;;;;;5039207;28;20077;-66
2021/03/01 01:01:34;;;;;;;21.73;11.38;;;;;;;;;;5030984;28;20036;-67
2021/03/01 01:03:59;;;;;;;26.38;11.55;;;;;;;;;;5032876;28;20087;-66
2021/03/01 01:06:24;;;;;;;27.10;10.77;;;;;;;;;;5029712;28;20115;-68
2021/03/01 01:08:50;;;;;;;25.38;11.18;;;;;;;;;;5032634;28;20437;-66
2021/03/01 01:11:15;;;;;;;22.75;10.35;;;;;;;;;;5032561;28;20060;-67
2021/03/01 01:13:40;;;;;;;26.98;10.80;;;;;;;;;;5030347;28;20043;-66
2021/03/01 01:16:05;;;;;;;27.77;10.23;;;;;;;;;;5039995;28;20017;-67
2021/03/01 01:18:31;;;;;;;23.20;10.45;;;;;;;;;;5035971;28;20519;-66
2021/03/01 01:20:56;;;;;;;22.67;10.55;;;;;;;;;;5034457;28;20021;-66
2021/03/01 01:23:22;;;;;;;20.30;9.98;;;;;;;;;;5031237;28;20497;-68
2021/03/01 01:25:47;;;;;;;23.83;10.10;;;;;;;;;;5034965;28;20116;-67
2021/03/01 01:28:12;;;;;;;26.35;10.02;;;;;;;;;;5033552;28;20052;-66
2021/03/01 01:30:37;;;;;;;24.50;9.50;;;;;;;;;;5040648;28;20486;-66
2021/03/01 01:33:03;;;;;;;28.67;10.77;;;;;;;;;;5038827;28;20110;-66
2021/03/01 01:35:28;;;;;;;22.40;9.68;;;;;;;;;;5034105;28;20108;-66
2021/03/01 01:37:53;;;;;;;24.08;10.77;;;;;;;;;;5033229;28;20179;-67
2021/03/01 01:40:20;;;;;;;22.35;10.05;;;;;;;;;;5032971;28;20466;-66
2021/03/01 01:42:45;;;;;;;24.08;10.55;;;;;;;;;;5031655;28;20021;-67
2021/03/01 01:45:12;;;;;;;22.13;10.43;;;;;;;;;;5032165;28;20466;-67
2021/03/01 01:47:37;;;;;;;22.88;9.43;;;;;;;;;;5032538;28;20033;-67
2021/03/01 01:50:06;;;;;;;26.75;10.95;;;;;;;;;;5033644;28;20064;-66
2021/03/01 01:52:31;;;;;;;21.38;9.35;;;;;;;;;;5032558;28;20061;-67
2021/03/01 01:54:57;;;;;;;24.17;10.10;;;;;;;;;;5031467;28;20009;-67
2021/03/01 01:57:23;;;;;;;24.90;10.18;;;;;;;;;;5046727;28;20017;-67
2021/03/01 01:59:48;;;;;;;23.58;9.68;;;;;;;;;;5034564;28;20025;-67
2021/03/01 02:02:13;;;;;;;24.35;9.85;;;;;;;;;;5031434;28;20033;-67
2021/03/01 02:04:43;;;;;;;21.58;9.88;;;;;;;;;;5030814;28;20022;-67
2021/03/01 02:07:14;;;;;;;27.67;10.15;;;;;;;;;;5038005;28;20029;-67
2021/03/01 02:09:58;;;;;;;22.35;10.73;;;;;;;;;;5030932;28;20021;-69
2021/03/01 02:12:23;;;;;;;24.23;10.45;;;;;;;;;;5035305;28;20092;-67
2021/03/01 02:14:58;;;;;;;30.90;10.95;;;;;;;;;;5030950;28;20113;-67
2021/03/01 02:17:23;;;;;;;26.40;10.57;;;;;;;;;;5027044;28;20052;-69
2021/03/01 02:19:48;;;;;;;31.30;10.98;;;;;;;;;;5030501;28;20049;-67
2021/03/01 02:22:14;;;;;;;21.50;10.15;;;;;;;;;;5033932;28;20021;-69
2021/03/01 02:24:44;;;;;;;22.02;9.65;;;;;;;;;;5031536;28;20087;-67
2021/03/01 02:27:11;;;;;;;23.02;9.63;;;;;;;;;;5032897;28;20079;-67
2021/03/01 02:29:37;;;;;;;26.40;9.52;;;;;;;;;;5031016;28;20045;-67
2021/03/01 02:32:03;;;;;;;21.52;8.90;;;;;;;;;;5036501;28;20040;-67
2021/03/01 02:34:32;;;;;;;27.23;10.25;;;;;;;;;;5032255;28;20605;-67
2021/03/01 02:36:58;;;;;;;22.63;10.35;;;;;;;;;;5031296;28;20034;-68
2021/03/01 02:39:24;;;;;;;28.35;10.13;;;;;;;;;;5038346;28;20100;-67
2021/03/01 02:41:50;;;;;;;24.75;9.55;;;;;;;;;;5033570;28;20037;-68
2021/03/01 02:44:16;;;;;;;25.65;11.27;;;;;;;;;;5033564;28;20535;-67
2021/03/01 02:46:41;;;;;;;31.33;9.88;;;;;;;;;;5033773;28;20384;-67
2021/03/01 02:49:07;;;;;;;18.83;8.90;;;;;;;;;;5029940;28;20032;-67
2021/03/01 02:51:34;;;;;;;22.13;10.13;;;;;;;;;;5030798;28;20044;-67
2021/03/01 02:54:01;;;;;;;29.55;9.10;;;;;;;;;;5030875;28;20036;-67
2021/03/01 02:56:26;;;;;;;19.70;8.93;;;;;;;;;;5036252;28;20026;-67
2021/03/01 02:58:52;;;;;;;20.27;10.13;;;;;;;;;;5032843;28;20032;-68
2021/03/01 03:01:17;;;;;;;20.27;9.35;;;;;;;;;;5034447;28;20477;-68
2021/03/01 03:03:44;;;;;;;25.00;10.07;;;;;;;;;;5034503;28;20025;-68
2021/03/01 03:06:12;;;;;;;24.52;8.43;;;;;;;;;;5033788;28;20104;-67
2021/03/01 03:08:38;;;;;;;19.83;9.07;;;;;;;;;;5024248;28;20041;-67
2021/03/01 03:11:04;;;;;;;24.63;9.50;;;;;;;;;;5032450;28;20428;-67
2021/03/01 03:13:29;;;;;;;21.63;8.77;;;;;;;;;;5031043;28;20104;-67
2021/03/01 03:15:56;;;;;;;21.58;9.18;;;;;;;;;;5030217;28;20093;-67
2021/03/01 03:18:22;;;;;;;24.10;8.75;;;;;;;;;;5035813;28;20477;-67
2021/03/01 03:20:47;;;;;;;28.13;9.18;;;;;;;;;;5030699;28;20448;-67
2021/03/01 03:23:12;;;;;;;23.02;9.20;;;;;;;;;;5031680;28;20036;-67
2021/03/01 03:25:38;;;;;;;19.77;9.00;;;;;;;;;;5033512;28;20033;-67
2021/03/01 03:28:04;;;;;;;24.40;9.00;;;;;;;;;;5032981;28;20021;-67
2021/03/01 03:30:29;;;;;;;21.42;8.57;;;;;;;;;;5030545;28;20382;-67
2021/03/01 03:32:55;;;;;;;18.83;9.40;;;;;;;;;;5035662;28;20104;-67
2021/03/01 03:35:20;;;;;;;22.30;9.82;;;;;;;;;;5031516;28;20351;-67
2021/03/01 03:37:58;;;;;;;19.48;8.50;;;;;;;;;;5029767;28;20109;-67
2021/03/01 03:40:24;;;;;;;29.67;9.68;;;;;;;;;;5028945;28;20036;-67
2021/03/01 03:42:49;;;;;;;21.95;9.52;;;;;;;;;;5031148;28;20060;-67
2021/03/01 03:45:16;;;;;;;21.15;9.38;;;;;;;;;;5030757;28;20056;-67
2021/03/01 03:47:42;;;;;;;27.83;10.65;;;;;;;;;;5033157;28;20018;-67
2021/03/01 03:50:07;;;;;;;24.77;10.05;;;;;;;;;;5030655;28;20025;-67
2021/03/01 03:52:34;;;;;;;29.25;9.88;;;;;;;;;;5033252;28;20057;-67
2021/03/01 03:55:01;;;;;;;24.90;10.13;;;;;;;;;;5030849;28;20437;-67
2021/03/01 03:57:28;;;;;;;30.40;11.95;;;;;;;;;;5033561;28;20021;-67
2021/03/01 03:59:54;;;;;;;24.55;9.32;;;;;;;;;;5030413;28;20068;-68
2021/03/01 04:02:21;;;;;;;22.17;9.18;;;;;;;;;;5029876;28;20057;-67
2021/03/01 04:04:46;;;;;;;27.45;9.70;;;;;;;;;;5037420;28;20059;-67
2021/03/01 04:07:12;;;;;;;30.85;10.23;;;;;;;;;;5031692;28;20048;-67
2021/03/01 04:09:39;;;;;;;31.77;10.50;;;;;;;;;;5031699;28;20126;-67
2021/03/01 04:12:05;;;;;;;22.55;9.60;;;;;;;;;;5045294;28;20024;-67
2021/03/01 04:14:31;;;;;;;21.98;9.57;;;;;;;;;;5029696;28;20033;-67
2021/03/01 04:16:57;;;;;;;20.48;9.70;;;;;;;;;;5027877;28;20017;-67
2021/03/01 04:19:24;;;;;;;23.63;9.52;;;;;;;;;;5032031;28;20202;-67
2021/03/01 04:21:54;;;;;;;21.23;8.75;;;;;;;;;;5031321;28;20040;-67
2021/03/01 04:24:20;;;;;;;24.55;9.20;;;;;;;;;;5030972;28;20025;-67
2021/03/01 04:26:46;;;;;;;29.20;9.98;;;;;;;;;;5033138;28;20035;-67
2021/03/01 04:29:12;;;;;;;19.85;9.43;;;;;;;;;;5028329;28;20033;-67
2021/03/01 04:31:38;;;;;;;21.35;9.38;;;;;;;;;;5035696;28;20056;-67
2021/03/01 04:34:04;;;;;;;24.20;10.02;;;;;;;;;;5028771;28;20017;-67
2021/03/01 04:36:30;;;;;;;26.30;9.23;;;;;;;;;;5037407;28;20124;-67
2021/03/01 04:38:55;;;;;;;26.63;9.98;;;;;;;;;;5031597;28;20465;-67
2021/03/01 04:41:22;;;;;;;23.17;10.07;;;;;;;;;;5035037;28;21737;-67
2021/03/01 04:43:48;;;;;;;31.55;9.82;;;;;;;;;;5030284;28;20029;-67
2021/03/01 04:46:13;;;;;;;31.08;11.05;;;;;;;;;;5029021;28;20022;-67
2021/03/01 04:48:39;;;;;;;23.30;9.43;;;;;;;;;;5036255;28;20053;-67
2021/03/01 04:51:04;;;;;;;21.40;9.32;;;;;;;;;;5044103;28;20473;-67
2021/03/01 04:53:30;;;;;;;22.98;9.95;;;;;;;;;;5028683;28;20041;-67
2021/03/01 04:55:55;;;;;;;28.30;10.05;;;;;;;;;;5029503;28;20110;-67
2021/03/01 04:58:21;;;;;;;23.80;10.00;;;;;;;;;;5030035;28;20033;-67
2021/03/01 05:00:47;;;;;;;25.10;10.05;;;;;;;;;;5028884;28;20512;-67
2021/03/01 05:03:12;;;;;;;31.98;10.95;;;;;;;;;;5032213;28;20021;-67
2021/03/01 05:05:37;;;;;;;26.20;9.45;;;;;;;;;;5030602;28;20022;-67
2021/03/01 05:08:03;;;;;;;22.83;9.35;;;;;;;;;;5028140;28;20033;-67
2021/03/01 05:10:30;;;;;;;22.50;9.63;;;;;;;;;;5029483;28;20025;-67
2021/03/01 05:12:55;;;;;;;27.65;10.50;;;;;;;;;;5035672;28;20485;-67
2021/03/01 05:15:20;;;;;;;19.02;9.00;;;;;;;;;;5029546;28;20105;-67
2021/03/01 05:17:46;;;;;;;29.50;10.30;;;;;;;;;;5035262;28;20024;-67
2021/03/01 05:20:12;;;;;;;22.63;10.20;;;;;;;;;;5029405;28;20478;-67
2021/03/01 05:22:37;;;;;;;24.88;9.82;;;;;;;;;;5033201;28;20508;-67
2021/03/01 05:25:02;;;;;;;22.70;9.02;;;;;;;;;;5029151;28;20022;-67
2021/03/01 05:27:29;;;;;;;24.00;9.70;;;;;;;;;;5033779;28;20079;-67
2021/03/01 05:29:54;;;;;;;27.65;10.55;;;;;;;;;;5033679;28;20037;-67
2021/03/01 05:32:20;;;;;;;26.45;10.35;;;;;;;;;;5032756;28;20028;-67
2021/03/01 05:34:45;;;;;;;20.25;8.70;;;;;;;;;;5029933;28;20045;-67
2021/03/01 05:37:10;;;;;;;25.75;10.13;;;;;;;;;;5035298;28;20009;-67
2021/03/01 05:39:35;;;;;;;23.67;10.00;;;;;;;;;;5038662;28;20025;-67
2021/03/01 05:42:01;;;;;;;26.40;8.93;;;;;;;;;;5030152;28;20052;-67
2021/03/01 05:44:27;;;;;;;23.33;10.20;;;;;;;;;;5033088;28;20052;-66
2021/03/01 05:46:53;;;;;;;21.55;9.77;;;;;;;;;;5032118;28;20033;-66
2021/03/01 05:49:19;;;;;;;22.98;9.60;;;;;;;;;;5034388;28;20025;-67
2021/03/01 05:51:48;;;;;;;24.70;10.10;;;;;;;;;;5030820;28;20542;-67
2021/03/01 05:54:15;;;;;;;21.70;9.27;;;;;;;;;;5029672;28;20029;-67
2021/03/01 05:56:40;;;;;;;28.83;9.77;;;;;;;;;;5029615;28;20413;-66
2021/03/01 05:59:06;;;;;;;22.52;9.15;;;;;;;;;;5035260;28;20048;-67
2021/03/01 06:01:31;;;;;;;22.52;9.85;;;;;;;;;;5033534;28;20029;-66
2021/03/01 06:03:57;;;;;;;23.05;11.10;;;;;;;;;;5033549;28;20025;-67
2021/03/01 06:06:22;;;;;;;25.15;10.73;;;;;;;;;;5031371;28;20024;-67
2021/03/01 06:08:47;;;;;;;22.90;10.70;;;;;;;;;;5047123;28;20027;-68
2021/03/01 06:11:13;;;;;;;25.33;9.63;;;;;;;;;;5030521;28;20044;-67
2021/03/01 06:13:38;;;;;;;29.27;10.27;;;;;;;;;;5029699;28;20091;-67
2021/03/01 06:16:04;;;;;;;35.10;11.38;;;;;;;;;;5029770;28;20018;-67
2021/03/01 06:18:29;;;;;;;24.98;10.43;;;;;;;;;;5033999;28;20100;-67
2021/03/01 06:21:08;;;;;;;28.30;11.38;;;;;;;;;;5036492;28;20056;-67
2021/03/01 06:23:34;;;;;;;32.17;12.55;;;;;;;;;;5033285;28;20509;-67
2021/03/01 06:26:18;;;;;;;25.05;10.75;;;;;;;;;;5034226;28;20082;-67
2021/03/01 06:28:45;;;;;;;28.05;11.25;;;;;;;;;;5034465;28;20026;-67
2021/03/01 06:31:29;;;;;;;24.13;12.02;;;;;;;;;;5036021;28;20061;-67
2021/03/01 06:34:14;;;;;;;22.77;9.90;;;;;;;;;;5023951;28;20024;-67
2021/03/01 06:37:03;;;;;;;24.65;9.95;;;;;;;;;;5031469;28;20075;-67
2021/03/01 06:39:30;;;;;;;28.33;10.20;;;;;;;;;;5013595;28;20038;-67
2021/03/01 06:41:55;;;;;;;28.38;10.65;;;;;;;;;;5044260;28;20032;-67
2021/03/01 06:44:20;;;;;;;27.58;10.38;;;;;;;;;;5035106;28;20017;-67
2021/03/01 06:46:49;;;;;;;25.52;9.63;;;;;;;;;;5037792;28;20529;-67
2021/03/01 06:49:15;;;;;;;30.38;10.48;;;;;;;;;;5039881;28;20111;-67
2021/03/01 06:51:41;;;;;;;27.80;11.55;;;;;;;;;;5031635;28;20037;-67
2021/03/01 06:54:06;;;;;;;27.30;11.10;;;;;;;;;;5037117;28;20055;-67
2021/03/01 06:56:35;;;;;;;29.52;11.80;;;;;;;;;;5032185;28;20025;-68
2021/03/01 06:59:08;;;;;;;30.83;11.15;;;;;;;;;;5039927;28;20025;-67
2021/03/01 07:01:42;;;;;;;26.05;11.73;;;;;;;;;;5037454;28;20394;-67
2021/03/01 07:04:07;;;;;;;31.35;11.98;;;;;;;;;;5041410;28;20029;-67
2021/03/01 07:06:35;;;;;;;28.95;10.20;;;;;;;;;;5033075;28;20025;-67
2021/03/01 07:09:00;;;;;;;30.38;11.80;;;;;;;;;;5039929;28;20091;-67
2021/03/01 07:11:26;;;;;;;23.58;10.40;;;;;;;;;;5036672;28;20030;-67
2021/03/01 07:13:52;;;;;;;33.78;11.45;;;;;;;;;;5028837;28;20094;-67
2021/03/01 07:16:17;;;;;;;31.90;11.43;;;;;;;;;;5031860;28;20120;-67
2021/03/01 07:18:42;;;;;;;29.27;11.05;;;;;;;;;;5035857;28;20063;-67
2021/03/01 07:21:11;;;;;;;26.52;10.10;;;;;;;;;;5040920;28;20052;-67
2021/03/01 07:23:39;;;;;;;20.92;9.20;;;;;;;;;;5028435;28;20051;-68
2021/03/01 07:26:05;;;;;;;23.38;9.85;;;;;;;;;;5023082;28;20030;-68
2021/03/01 07:28:32;;;;;;;16.48;9.45;;;;;;;;;;5027581;28;20022;-68
2021/03/01 07:30:57;;;;;;;16.35;7.93;;;;;;;;;;5034112;28;20055;-68
2021/03/01 07:33:23;;;;;;;15.82;7.88;;;;;;;;;;5028309;28;20550;-68
2021/03/01 07:35:48;;;;;;;15.50;7.97;;;;;;;;;;5029314;28;20029;-68
2021/03/01 07:38:14;;;;;;;14.50;7.28;;;;;;;;;;5030165;28;20771;-68
2021/03/01 07:40:39;;;;;;;15.40;7.93;;;;;;;;;;5034234;28;20056;-67
2021/03/01 07:43:05;;;;;;;16.92;7.75;;;;;;;;;;5028893;28;20025;-67
2021/03/01 07:45:31;;;;;;;21.90;8.13;;;;;;;;;;5035331;28;20025;-68
2021/03/01 07:48:00;;;;;;;13.50;7.70;;;;;;;;;;5031559;28;20537;-68
2021/03/01 07:50:38;;;;;;;15.38;7.80;;;;;;;;;;5029941;28;20477;-66
2021/03/01 07:53:04;;;;;;;22.75;10.18;;;;;;;;;;5031729;28;20075;-66
2021/03/01 07:55:29;;;;;;;11.90;6.70;;;;;;;;;;5028146;28;20033;-66
2021/03/01 07:58:05;;;;;;;20.92;9.23;;;;;;;;;;5026395;28;20029;-66
2021/03/01 08:00:34;;;;;;;18.90;8.18;;;;;;;;;;5024179;28;20032;-66
2021/03/01 08:03:00;;;;;;;16.30;7.68;;;;;;;;;;5031241;28;20053;-66
2021/03/01 08:05:28;;;;;;;10.70;6.85;;;;;;;;;;5028983;28;20025;-66
2021/03/01 08:07:53;;;;;;;12.57;7.07;;;;;;;;;;5033746;28;20033;-66
2021/03/01 08:10:18;;;;;;;13.88;7.15;;;;;;;;;;5029717;28;20025;-67
2021/03/01 08:12:46;;;;;;;14.85;6.43;;;;;;;;;;5029156;28;20087;-67
2021/03/01 08:15:19;;;;;;;16.17;7.90;;;;;;;;;;5033506;28;20517;-67
2021/03/01 08:17:47;;;;;;;12.93;7.25;;;;;;;;;;5031958;28;20033;-68
2021/03/01 08:20:16;;;;;;;11.43;6.63;;;;;;;;;;5030003;28;20028;-67
2021/03/01 08:22:59;;;;;;;11.38;6.20;;;;;;;;;;5030312;28;20037;-68
2021/03/01 08:25:48;;;;;;;16.85;6.60;;;;;;;;;;5029274;28;20033;-68
2021/03/01 08:28:22;;;;;;;12.77;7.60;;;;;;;;;;5034371;28;20039;-67
2021/03/01 08:30:48;;;;;;;14.80;6.88;;;;;;;;;;5058182;22;20046;-63
2021/03/01 08:33:14;;;;;;;11.95;6.95;;;;;;;;;;5028269;28;20026;-64
2021/03/01 08:35:40;;;;;;;11.23;6.30;;;;;;;;;;5027790;28;20095;-64
2021/03/01 08:38:06;;;;;;;12.52;6.95;;;;;;;;;;5028133;28;20032;-64
2021/03/01 08:40:31;;;;;;;17.30;7.38;;;;;;;;;;5029877;28;20055;-64
2021/03/01 08:42:59;;;;;;;12.05;7.03;;;;;;;;;;5029171;28;20465;-64
2021/03/01 08:45:26;;;;;;;12.57;7.05;;;;;;;;;;5026903;28;20466;-64
2021/03/01 08:47:52;;;;;;;13.63;7.28;;;;;;;;;;5030029;28;20026;-64
2021/03/01 08:50:25;;;;;;;16.20;7.13;;;;;;;;;;5028886;28;20465;-64
2021/03/01 08:52:50;;;;;;;13.93;7.28;;;;;;;;;;5028545;28;20022;-64
2021/03/01 08:55:17;;;;;;;16.45;7.05;;;;;;;;;;5010033;28;20485;-64
2021/03/01 08:57:55;;;;;;;14.65;6.53;;;;;;;;;;5028851;28;20121;-64
2021/03/01 09:00:21;;;;;;;13.35;7.20;;;;;;;;;;5007003;28;20105;-64
2021/03/01 09:02:46;;;;;;;13.43;6.90;;;;;;;;;;5028345;28;20186;-64
2021/03/01 09:05:11;;;;;;;11.80;7.07;;;;;;;;;;5027278;28;20064;-64
2021/03/01 09:07:46;;;;;;;8.77;5.90;;;;;;;;;;5029759;28;20317;-64
2021/03/01 09:10:11;;;;;;;11.63;6.88;;;;;;;;;;5030524;28;20444;-64
2021/03/01 09:12:37;;;;;;;14.93;6.30;;;;;;;;;;5032707;28;20037;-64
2021/03/01 09:15:02;;;;;;;10.48;6.43;;;;;;;;;;5031396;28;20028;-64
2021/03/01 09:17:28;;;;;;;11.63;5.70;;;;;;;;;;5031873;28;20056;-64
2021/03/01 09:19:56;;;;;;;10.57;7.07;;;;;;;;;;5032683;28;20033;-63
2021/03/01 09:22:22;;;;;;;14.57;6.90;;;;;;;;;;5031466;28;20764;-63
2021/03/01 09:24:48;;;;;;;11.18;6.20;;;;;;;;;;5031003;28;20040;-63
2021/03/01 09:27:14;;;;;;;14.88;5.90;;;;;;;;;;5032645;28;20033;-64
2021/03/01 09:29:39;;;;;;;15.77;6.22;;;;;;;;;;5031528;28;20034;-64
2021/03/01 09:32:04;;;;;;;13.20;6.77;;;;;;;;;;5030973;28;20025;-64
2021/03/01 09:34:30;;;;;;;13.30;5.85;;;;;;;;;;5031753;28;20772;-64
2021/03/01 09:36:55;;;;;;;12.02;6.30;;;;;;;;;;5030529;28;20018;-64
2021/03/01 09:39:22;;;;;;;10.30;5.78;;;;;;;;;;5032516;28;20386;-64
2021/03/01 09:41:48;;;;;;;11.75;6.53;;;;;;;;;;5032093;28;20385;-64
2021/03/01 09:44:23;;;;;;;12.70;6.43;;;;;;;;;;5030300;28;20017;-64
2021/03/01 09:46:48;;;;;;;10.18;6.25;;;;;;;;;;5026859;28;20025;-64
2021/03/01 09:49:14;;;;;;;11.32;5.90;;;;;;;;;;5031353;28;20465;-64
2021/03/01 09:51:39;;;;;;;12.15;5.78;;;;;;;;;;5030322;28;20488;-64
2021/03/01 09:54:06;;;;;;;10.73;5.83;;;;;;;;;;5025897;28;20031;-64
2021/03/01 09:56:40;;;;;;;14.00;6.75;;;;;;;;;;5022570;28;20264;-64
2021/03/01 09:59:05;;;;;;;14.77;6.30;;;;;;;;;;5024672;28;20093;-64
2021/03/01 10:01:30;;;;;;;12.50;5.72;;;;;;;;;;5024015;28;20113;-64
2021/03/01 10:03:55;;;;;;;10.67;5.67;;;;;;;;;;5022683;28;20040;-64
2021/03/01 10:06:30;;;;;;;13.47;7.03;;;;;;;;;;5024766;28;20271;-64
2021/03/01 10:09:00;;;;;;;12.15;6.28;;;;;;;;;;5031965;28;20308;-64
2021/03/01 10:11:26;;;;;;;13.43;6.35;;;;;;;;;;5032511;28;20297;-64
2021/03/01 10:13:51;;;;;;;15.20;6.65;;;;;;;;;;5029061;28;20049;-64
2021/03/01 10:16:35;;;;;;;12.57;6.88;;;;;;;;;;5028152;28;20025;-64
2021/03/01 10:19:13;;;;;;;14.65;6.30;;;;;;;;;;5030572;28;20022;-64
2021/03/01 10:21:38;;;;;;;12.20;6.60;;;;;;;;;;5009676;28;20036;-68
2021/03/01 10:24:06;;;;;;;14.88;7.18;;;;;;;;;;5031206;28;20025;-64
2021/03/01 10:26:32;;;;;;;11.52;7.00;;;;;;;;;;5028439;28;20029;-64
2021/03/01 10:28:59;;;;;;;17.27;6.80;;;;;;;;;;5030978;28;20021;-64
2021/03/01 10:31:26;;;;;;;10.90;6.35;;;;;;;;;;5030050;28;20255;-64
2021/03/01 10:33:51;;;;;;;14.30;6.47;;;;;;;;;;5031158;28;20030;-64
2021/03/01 10:36:16;;;;;;;24.02;6.95;;;;;;;;;;5030301;28;20024;-64
2021/03/01 10:38:54;;;;;;;13.90;6.15;;;;;;;;;;5030969;28;20025;-64
2021/03/01 10:41:20;;;;;;;11.07;5.50;;;;;;;;;;5031338;28;20025;-64
2021/03/01 10:43:53;;;;;;;15.77;6.60;;;;;;;;;;5030112;28;20026;-64
2021/03/01 10:46:31;;;;;;;9.90;6.13;;;;;;;;;;5030057;28;20025;-64
2021/03/01 10:48:56;;;;;;;12.85;6.55;;;;;;;;;;5030608;28;20150;-64
2021/03/01 10:51:22;;;;;;;15.68;7.10;;;;;;;;;;5031352;28;20625;-64
2021/03/01 10:53:47;;;;;;;10.93;5.60;;;;;;;;;;5030505;28;20370;-64
2021/03/01 10:56:12;;;;;;;14.40;6.33;;;;;;;;;;5030347;28;20283;-64
2021/03/01 10:58:37;;;;;;;11.67;6.43;;;;;;;;;;5029132;28;20275;-64
2021/03/01 11:01:02;;;;;;;16.67;7.57;;;;;;;;;;5029013;28;20835;-64
2021/03/01 11:03:28;;;;;;;12.57;6.60;;;;;;;;;;5030358;28;20271;-64
2021/03/01 11:05:53;;;;;;;14.27;7.80;;;;;;;;;;5029374;28;20478;-64
2021/03/01 11:08:18;;;;;;;16.50;5.43;;;;;;;;;;5030823;28;20363;-64
2021/03/01 11:10:43;;;;;;;12.75;6.45;;;;;;;;;;5029956;28;20590;-64
2021/03/01 11:13:08;;;;;;;12.90;6.00;;;;;;;;;;5029386;28;20028;-64
2021/03/01 11:15:33;;;;;;;17.23;6.53;;;;;;;;;;5028950;28;20280;-64
2021/03/01 11:17:59;;;;;;;13.37;5.70;;;;;;;;;;5027971;28;20367;-64
2021/03/01 11:20:24;;;;;;;11.33;5.90;;;;;;;;;;5027233;28;20998;-64
2021/03/01 11:22:49;;;;;;;11.90;7.10;;;;;;;;;;5029211;28;20272;-64
2021/03/01 11:25:14;;;;;;;14.77;6.77;;;;;;;;;;5029193;28;20260;-64
2021/03/01 11:27:39;;;;;;;12.13;6.40;;;;;;;;;;5029980;28;20272;-64
2021/03/01 11:30:05;;;;;;;18.50;9.93;;;;;;;;;;5030141;28;20272;-64
2021/03/01 11:32:30;;;;;;;15.45;8.93;;;;;;;;;;5029149;28;20059;-65
2021/03/01 11:34:55;;;;;;;27.70;10.43;;;;;;;;;;5029737;28;20510;-65
2021/03/01 11:37:20;;;;;;;16.60;9.10;;;;;;;;;;5026593;28;20326;-64
2021/03/01 11:39:45;;;;;;;18.17;8.97;;;;;;;;;;5012171;28;20760;-65
2021/03/01 11:42:12;;;;;;;17.03;8.43;;;;;;;;;;5028073;28;20276;-64
2021/03/01 11:44:38;;;;;;;24.85;7.55;;;;;;;;;;5028975;28;20284;-64
2021/03/01 11:47:03;;;;;;;14.90;7.70;;;;;;;;;;5029450;28;20482;-64
2021/03/01 11:49:29;;;;;;;15.23;8.50;;;;;;;;;;5029702;28;20279;-64
2021/03/01 11:51:54;;;;;;;19.63;8.43;;;;;;;;;;5029301;28;20029;-64
2021/03/01 11:54:19;;;;;;;15.03;7.57;;;;;;;;;;5029068;28;20268;-65
2021/03/01 11:56:44;;;;;;;14.97;7.90;;;;;;;;;;5028264;28;20279;-64
2021/03/01 11:59:09;;;;;;;13.17;7.50;;;;;;;;;;5027488;28;20264;-64
2021/03/01 12:01:34;;;;;;;20.60;7.13;;;;;;;;;;5030278;28;20272;-64
2021/03/01 12:04:00;;;;;;;12.33;7.57;;;;;;;;;;5029185;28;20276;-64
2021/03/01 12:06:25;;;;;;;12.85;7.05;;;;;;;;;;5027931;28;20373;-65
2021/03/01 12:08:50;;;;;;;15.70;6.88;;;;;;;;;;5028612;28;20026;-65
2021/03/01 12:11:15;;;;;;;22.45;7.40;;;;;;;;;;5029796;28;20057;-65
2021/03/01 12:13:40;;;;;;;16.85;7.78;;;;;;;;;;5010808;28;20156;-65
2021/03/01 12:16:06;;;;;;;18.17;7.70;;;;;;;;;;5028057;28;20078;-65
2021/03/01 12:18:31;;;;;;;12.98;6.55;;;;;;;;;;5026545;28;20025;-65
2021/03/01 12:20:56;;;;;;;13.55;6.70;;;;;;;;;;5027886;28;20109;-65
2021/03/01 12:23:21;;;;;;;14.87;8.53;;;;;;;;;;5028398;28;20490;-65
2021/03/01 12:25:46;;;;;;;15.27;7.70;;;;;;;;;;5026736;28;20294;-65
2021/03/01 12:28:12;;;;;;;13.23;7.13;;;;;;;;;;5028369;28;20025;-65
2021/03/01 12:30:37;;;;;;;13.37;6.93;;;;;;;;;;5027819;28;20032;-65
2021/03/01 12:33:02;;;;;;;15.23;8.15;;;;;;;;;;5028624;28;20284;-65
2021/03/01 12:35:28;;;;;;;19.17;7.65;;;;;;;;;;5029125;28;20009;-65
2021/03/01 12:37:53;;;;;;;16.80;9.32;;;;;;;;;;5029603;28;20013;-65
2021/03/01 12:40:19;;;;;;;22.65;9.23;;;;;;;;;;5028200;28;20017;-65
2021/03/01 12:42:44;;;;;;;20.13;8.40;;;;;;;;;;5028253;28;20117;-65
2021/03/01 12:45:09;;;;;;;14.82;9.07;;;;;;;;;;5033318;28;20547;-65
2021/03/01 12:47:35;;;;;;;24.95;8.55;;;;;;;;;;5032141;28;20064;-65
2021/03/01 12:50:00;;;;;;;26.50;7.75;;;;;;;;;;5033218;28;20049;-65
2021/03/01 12:52:25;;;;;;;14.47;7.33;;;;;;;;;;5031850;28;20386;-65
2021/03/01 12:54:50;;;;;;;12.83;7.13;;;;;;;;;;5033718;28;20442;-65
2021/03/01 12:57:15;;;;;;;14.93;8.00;;;;;;;;;;5031477;28;20744;-65
2021/03/01 12:59:40;;;;;;;14.63;8.67;;;;;;;;;;5033119;28;20268;-65
2021/03/01 13:02:06;;;;;;;14.47;6.53;;;;;;;;;;5029903;28;20702;-65
2021/03/01 13:04:32;;;;;;;18.20;7.68;;;;;;;;;;5032899;28;20261;-65
2021/03/01 13:06:57;;;;;;;17.48;7.28;;;;;;;;;;5032150;28;20488;-65
2021/03/01 13:09:23;;;;;;;18.67;7.65;;;;;;;;;;5032234;28;20030;-65
2021/03/01 13:11:48;;;;;;;13.80;7.13;;;;;;;;;;5032306;28;20378;-65
2021/03/01 13:14:13;;;;;;;17.08;6.25;;;;;;;;;;5033066;28;20264;-65
2021/03/01 13:16:38;;;;;;;13.20;7.20;;;;;;;;;;5032255;28;20060;-65
2021/03/01 13:19:04;;;;;;;14.38;7.15;;;;;;;;;;5031949;28;20010;-65
2021/03/01 13:21:29;;;;;;;15.77;7.45;;;;;;;;;;5031866;28;20453;-65
2021/03/01 13:23:54;;;;;;;13.77;6.23;;;;;;;;;;5033255;28;20091;-65
2021/03/01 13:26:19;;;;;;;14.85;7.68;;;;;;;;;;5031620;28;20272;-65
2021/03/01 13:28:45;;;;;;;23.65;8.57;;;;;;;;;;5031233;28;20022;-65
2021/03/01 13:31:10;;;;;;;15.95;7.85;;;;;;;;;;5032438;28;20036;-65
2021/03/01 13:33:35;;;;;;;27.60;8.77;;;;;;;;;;5031272;28;20022;-65
2021/03/01 13:36:00;;;;;;;21.42;8.20;;;;;;;;;;5032619;28;20417;-65
2021/03/01 13:38:25;;;;;;;30.13;9.03;;;;;;;;;;5029826;28;20382;-65
2021/03/01 13:40:51;;;;;;;17.80;7.67;;;;;;;;;;5014037;28;20272;-65
2021/03/01 13:43:16;;;;;;;23.33;8.30;;;;;;;;;;5013706;28;20258;-65
2021/03/01 13:45:41;;;;;;;16.37;7.80;;;;;;;;;;5032280;28;20032;-65
2021/03/01 13:48:06;;;;;;;22.50;8.02;;;;;;;;;;5026070;28;20276;-65
2021/03/01 13:50:32;;;;;;;17.83;7.88;;;;;;;;;;5026146;28;20397;-65
2021/03/01 13:52:57;;;;;;;16.08;8.05;;;;;;;;;;5032067;28;20375;-65
2021/03/01 13:55:22;;;;;;;21.20;7.80;;;;;;;;;;5032004;28;20063;-64
2021/03/01 13:57:47;;;;;;;16.50;7.07;;;;;;;;;;5032099;28;20700;-64
2021/03/01 14:00:13;;;;;;;16.58;7.72;;;;;;;;;;5031790;28;20021;-65
2021/03/01 14:02:39;;;;;;;18.63;8.07;;;;;;;;;;5031932;28;20462;-65
2021/03/01 14:05:08;;;;;;;24.13;7.32;;;;;;;;;;5032332;28;20030;-65
2021/03/01 14:07:33;;;;;;;15.80;7.55;;;;;;;;;;5031837;28;20374;-65
2021/03/01 14:09:59;;;;;;;15.63;6.60;;;;;;;;;;5031679;28;20036;-65
2021/03/01 14:12:24;;;;;;;14.68;7.10;;;;;;;;;;5031500;28;20109;-66
2021/03/01 14:14:49;;;;;;;12.73;6.93;;;;;;;;;;5031807;28;20017;-65
2021/03/01 14:17:14;;;;;;;17.10;7.18;;;;;;;;;;5031587;28;20603;-65
2021/03/01 14:19:39;;;;;;;19.50;8.40;;;;;;;;;;5029316;28;20160;-65
2021/03/01 14:22:05;;;;;;;24.30;8.20;;;;;;;;;;5031261;28;20268;-65